sensor_id;sensor_type;location;lat;lon;timestamp;temperature;humidity
4651;DHT22;2338;49.602;8.722;2023-09-18T00:00:56;19.80;99.90
4651;DHT22;2338;49.602;8.722;2023-09-18T00:03:42;19.80;99.90
4651;DHT22;2338;49.602;8.722;2023-09-18T00:06:28;19.80;99.90
4651;DHT22;2338;49.602;8.722;2023-09-18T00:09:14;19.90;99.90
4651;DHT22;2338;49.602;8.722;2023-09-18T00:12:00;19.90;99.90
4651;DHT22;2338;49.602;8.722;2023-09-18T00:14:48;19.90;99.90
4651;DHT22;2338;49.602;8.722;2023-09-18T00:17:35;19.90;99.90
4651;DHT22;2338;49.602;8.722;2023-09-18T00:20:21;19.90;99.90
4651;DHT22;2338;49.602;8.722;2023-09-18T00:23:17;19.90;99.90
4651;DHT22;2338;49.602;8.722;2023-09-18T00:26:04;20.00;99.90
4651;DHT22;2338;49.602;8.722;2023-09-18T00:28:50;19.90;99.90
4651;DHT22;2338;49.602;8.722;2023-09-18T00:31:36;20.00;99.90
4651;DHT22;2338;49.602;8.722;2023-09-18T00:34:23;19.80;99.90
4651;DHT22;2338;49.602;8.722;2023-09-18T00:37:09;19.80;99.90
4651;DHT22;2338;49.602;8.722;2023-09-18T00:39:56;19.80;99.90
4651;DHT22;2338;49.602;8.722;2023-09-18T00:42:41;19.80;99.90
4651;DHT22;2338;49.602;8.722;2023-09-18T00:45:28;19.80;99.90
4651;DHT22;2338;49.602;8.722;2023-09-18T00:48:15;19.80;99.90
4651;DHT22;2338;49.602;8.722;2023-09-18T00:51:02;19.80;99.90
4651;DHT22;2338;49.602;8.722;2023-09-18T00:53:48;19.80;99.90
4651;DHT22;2338;49.602;8.722;2023-09-18T00:56:36;19.90;99.90
4651;DHT22;2338;49.602;8.722;2023-09-18T00:59:22;19.90;99.90
4651;DHT22;2338;49.602;8.722;2023-09-18T01:02:08;19.90;99.90
4651;DHT22;2338;49.602;8.722;2023-09-18T01:04:54;19.80;99.90
4651;DHT22;2338;49.602;8.722;2023-09-18T01:07:42;19.80;99.90
4651;DHT22;2338;49.602;8.722;2023-09-18T01:10:34;19.80;99.90
4651;DHT22;2338;49.602;8.722;2023-09-18T01:13:26;19.80;99.90
4651;DHT22;2338;49.602;8.722;2023-09-18T01:16:17;20.00;99.90
4651;DHT22;2338;49.602;8.722;2023-09-18T01:19:07;20.10;99.90
4651;DHT22;2338;49.602;8.722;2023-09-18T01:21:53;20.10;99.90
4651;DHT22;2338;49.602;8.722;2023-09-18T01:24:41;20.10;99.90
4651;DHT22;2338;49.602;8.722;2023-09-18T01:27:26;20.00;99.90
4651;DHT22;2338;49.602;8.722;2023-09-18T01:30:12;20.00;99.90
4651;DHT22;2338;49.602;8.722;2023-09-18T01:32:59;20.10;99.90
4651;DHT22;2338;49.602;8.722;2023-09-18T01:35:46;20.10;99.90
4651;DHT22;2338;49.602;8.722;2023-09-18T01:38:33;20.10;99.90
4651;DHT22;2338;49.602;8.722;2023-09-18T01:41:20;20.10;99.90
4651;DHT22;2338;49.602;8.722;2023-09-18T01:44:06;20.10;99.90
4651;DHT22;2338;49.602;8.722;2023-09-18T01:46:52;20.10;99.90
4651;DHT22;2338;49.602;8.722;2023-09-18T01:49:40;20.00;99.90
4651;DHT22;2338;49.602;8.722;2023-09-18T01:52:26;20.10;99.90
4651;DHT22;2338;49.602;8.722;2023-09-18T01:55:12;20.10;99.90
4651;DHT22;2338;49.602;8.722;2023-09-18T01:57:59;20.20;99.90
4651;DHT22;2338;49.602;8.722;2023-09-18T02:00:49;20.20;99.90
4651;DHT22;2338;49.602;8.722;2023-09-18T02:03:34;20.30;99.90
4651;DHT22;2338;49.602;8.722;2023-09-18T02:06:20;20.30;99.90
4651;DHT22;2338;49.602;8.722;2023-09-18T02:09:05;20.40;99.90
4651;DHT22;2338;49.602;8.722;2023-09-18T02:11:52;20.50;99.90
4651;DHT22;2338;49.602;8.722;2023-09-18T02:14:39;20.60;99.90
4651;DHT22;2338;49.602;8.722;2023-09-18T02:17:25;20.90;99.90
4651;DHT22;2338;49.602;8.722;2023-09-18T02:20:11;21.10;99.90
4651;DHT22;2338;49.602;8.722;2023-09-18T02:23:06;21.20;99.90
4651;DHT22;2338;49.602;8.722;2023-09-18T02:25:56;21.30;99.90
4651;DHT22;2338;49.602;8.722;2023-09-18T02:28:41;21.30;99.90
4651;DHT22;2338;49.602;8.722;2023-09-18T02:31:28;21.30;99.90
4651;DHT22;2338;49.602;8.722;2023-09-18T02:34:14;21.10;99.90
4651;DHT22;2338;49.602;8.722;2023-09-18T02:36:59;21.00;99.90
4651;DHT22;2338;49.602;8.722;2023-09-18T02:39:45;20.70;99.90
4651;DHT22;2338;49.602;8.722;2023-09-18T02:42:31;20.60;99.90
4651;DHT22;2338;49.602;8.722;2023-09-18T02:45:17;20.50;99.90
4651;DHT22;2338;49.602;8.722;2023-09-18T02:48:06;20.40;99.90
4651;DHT22;2338;49.602;8.722;2023-09-18T02:50:51;20.40;99.90
4651;DHT22;2338;49.602;8.722;2023-09-18T02:53:37;20.30;99.90
4651;DHT22;2338;49.602;8.722;2023-09-18T02:56:23;20.20;99.90
4651;DHT22;2338;49.602;8.722;2023-09-18T02:59:09;20.10;99.90
4651;DHT22;2338;49.602;8.722;2023-09-18T03:01:54;19.90;99.90
4651;DHT22;2338;49.602;8.722;2023-09-18T03:04:42;19.90;99.90
4651;DHT22;2338;49.602;8.722;2023-09-18T03:07:27;19.80;99.90
4651;DHT22;2338;49.602;8.722;2023-09-18T03:10:14;19.80;99.90
4651;DHT22;2338;49.602;8.722;2023-09-18T03:13:02;19.90;99.90
4651;DHT22;2338;49.602;8.722;2023-09-18T03:15:50;19.90;99.90
4651;DHT22;2338;49.602;8.722;2023-09-18T03:18:36;19.80;99.90
4651;DHT22;2338;49.602;8.722;2023-09-18T03:21:23;19.80;99.90
4651;DHT22;2338;49.602;8.722;2023-09-18T03:24:10;19.70;99.90
4651;DHT22;2338;49.602;8.722;2023-09-18T03:26:55;19.60;99.90
4651;DHT22;2338;49.602;8.722;2023-09-18T03:29:41;19.70;99.90
4651;DHT22;2338;49.602;8.722;2023-09-18T03:32:27;19.60;99.90
4651;DHT22;2338;49.602;8.722;2023-09-18T03:35:13;19.50;99.90
4651;DHT22;2338;49.602;8.722;2023-09-18T03:38:03;19.50;99.90
4651;DHT22;2338;49.602;8.722;2023-09-18T03:40:49;19.50;99.90
4651;DHT22;2338;49.602;8.722;2023-09-18T03:43:37;19.50;99.90
4651;DHT22;2338;49.602;8.722;2023-09-18T03:46:22;19.60;99.90
4651;DHT22;2338;49.602;8.722;2023-09-18T03:49:08;19.60;99.90
4651;DHT22;2338;49.602;8.722;2023-09-18T03:51:54;19.60;99.90
4651;DHT22;2338;49.602;8.722;2023-09-18T03:54:41;19.60;99.90
4651;DHT22;2338;49.602;8.722;2023-09-18T03:57:27;19.70;99.90
4651;DHT22;2338;49.602;8.722;2023-09-18T04:00:13;19.70;99.90
4651;DHT22;2338;49.602;8.722;2023-09-18T04:02:58;19.70;99.90
4651;DHT22;2338;49.602;8.722;2023-09-18T04:05:44;19.70;99.90
4651;DHT22;2338;49.602;8.722;2023-09-18T04:08:30;19.70;99.90
4651;DHT22;2338;49.602;8.722;2023-09-18T04:11:18;19.70;99.90
4651;DHT22;2338;49.602;8.722;2023-09-18T04:14:10;19.70;99.90
4651;DHT22;2338;49.602;8.722;2023-09-18T04:16:55;19.70;99.90
4651;DHT22;2338;49.602;8.722;2023-09-18T04:19:44;19.80;99.90
4651;DHT22;2338;49.602;8.722;2023-09-18T04:22:30;20.20;99.90
4651;DHT22;2338;49.602;8.722;2023-09-18T04:25:16;20.30;99.90
4651;DHT22;2338;49.602;8.722;2023-09-18T04:28:05;20.50;99.90
4651;DHT22;2338;49.602;8.722;2023-09-18T04:30:51;20.60;99.90
4651;DHT22;2338;49.602;8.722;2023-09-18T04:33:36;20.60;99.90
4651;DHT22;2338;49.602;8.722;2023-09-18T04:36:22;20.70;99.90
4651;DHT22;2338;49.602;8.722;2023-09-18T04:39:08;20.60;99.90
4651;DHT22;2338;49.602;8.722;2023-09-18T04:41:54;20.60;99.90
4651;DHT22;2338;49.602;8.722;2023-09-18T04:44:41;20.50;99.90
4651;DHT22;2338;49.602;8.722;2023-09-18T04:47:27;20.30;99.90
4651;DHT22;2338;49.602;8.722;2023-09-18T04:50:12;20.20;99.90
4651;DHT22;2338;49.602;8.722;2023-09-18T04:53:00;20.00;99.90
4651;DHT22;2338;49.602;8.722;2023-09-18T04:55:48;19.90;99.90
4651;DHT22;2338;49.602;8.722;2023-09-18T04:58:34;19.80;99.90
4651;DHT22;2338;49.602;8.722;2023-09-18T05:01:23;19.80;99.90
4651;DHT22;2338;49.602;8.722;2023-09-18T05:04:09;19.60;99.90
4651;DHT22;2338;49.602;8.722;2023-09-18T05:06:55;19.50;99.90
4651;DHT22;2338;49.602;8.722;2023-09-18T05:09:40;19.50;99.90
4651;DHT22;2338;49.602;8.722;2023-09-18T05:12:26;19.30;99.90
4651;DHT22;2338;49.602;8.722;2023-09-18T05:15:12;19.40;99.90
4651;DHT22;2338;49.602;8.722;2023-09-18T05:18:00;19.40;99.90
4651;DHT22;2338;49.602;8.722;2023-09-18T05:20:46;19.40;99.90
4651;DHT22;2338;49.602;8.722;2023-09-18T05:23:31;19.30;99.90
4651;DHT22;2338;49.602;8.722;2023-09-18T05:26:18;19.30;99.90
4651;DHT22;2338;49.602;8.722;2023-09-18T05:29:03;19.20;99.90
4651;DHT22;2338;49.602;8.722;2023-09-18T05:31:49;19.20;99.90
4651;DHT22;2338;49.602;8.722;2023-09-18T05:34:36;19.20;99.90
4651;DHT22;2338;49.602;8.722;2023-09-18T05:37:22;19.30;99.90
4651;DHT22;2338;49.602;8.722;2023-09-18T05:40:09;19.20;99.90
4651;DHT22;2338;49.602;8.722;2023-09-18T05:42:55;19.10;99.90
4651;DHT22;2338;49.602;8.722;2023-09-18T05:45:41;19.10;99.90
4651;DHT22;2338;49.602;8.722;2023-09-18T05:48:28;19.10;99.90
4651;DHT22;2338;49.602;8.722;2023-09-18T05:51:16;19.10;99.90
4651;DHT22;2338;49.602;8.722;2023-09-18T05:54:01;19.10;99.90
4651;DHT22;2338;49.602;8.722;2023-09-18T05:56:47;19.10;99.90
4651;DHT22;2338;49.602;8.722;2023-09-18T05:59:33;19.20;99.90
4651;DHT22;2338;49.602;8.722;2023-09-18T06:02:19;19.30;99.90
4651;DHT22;2338;49.602;8.722;2023-09-18T06:05:06;19.30;99.90
4651;DHT22;2338;49.602;8.722;2023-09-18T06:07:53;19.40;99.90
4651;DHT22;2338;49.602;8.722;2023-09-18T06:10:38;19.40;99.90
4651;DHT22;2338;49.602;8.722;2023-09-18T06:13:24;19.40;99.90
4651;DHT22;2338;49.602;8.722;2023-09-18T06:16:10;19.50;99.90
4651;DHT22;2338;49.602;8.722;2023-09-18T06:18:56;19.50;99.90
4651;DHT22;2338;49.602;8.722;2023-09-18T06:21:44;19.60;99.90
4651;DHT22;2338;49.602;8.722;2023-09-18T06:24:31;19.50;99.90
4651;DHT22;2338;49.602;8.722;2023-09-18T06:27:17;19.60;99.90
4651;DHT22;2338;49.602;8.722;2023-09-18T06:30:05;19.60;99.90
4651;DHT22;2338;49.602;8.722;2023-09-18T06:32:53;19.70;99.90
4651;DHT22;2338;49.602;8.722;2023-09-18T06:35:40;19.60;99.90
4651;DHT22;2338;49.602;8.722;2023-09-18T06:38:26;19.60;99.90
4651;DHT22;2338;49.602;8.722;2023-09-18T06:41:13;19.60;99.90
4651;DHT22;2338;49.602;8.722;2023-09-18T06:43:58;19.70;99.90
4651;DHT22;2338;49.602;8.722;2023-09-18T06:46:46;19.70;99.90
4651;DHT22;2338;49.602;8.722;2023-09-18T06:49:32;19.80;99.90
4651;DHT22;2338;49.602;8.722;2023-09-18T06:52:18;19.80;99.90
4651;DHT22;2338;49.602;8.722;2023-09-18T06:55:04;19.90;99.90
4651;DHT22;2338;49.602;8.722;2023-09-18T06:57:52;20.00;99.90
4651;DHT22;2338;49.602;8.722;2023-09-18T07:00:37;20.00;99.90
4651;DHT22;2338;49.602;8.722;2023-09-18T07:03:23;20.00;99.90
4651;DHT22;2338;49.602;8.722;2023-09-18T07:06:09;20.00;99.90
4651;DHT22;2338;49.602;8.722;2023-09-18T07:08:55;20.10;99.90
4651;DHT22;2338;49.602;8.722;2023-09-18T07:11:41;20.10;99.90
4651;DHT22;2338;49.602;8.722;2023-09-18T07:14:27;20.10;99.90
4651;DHT22;2338;49.602;8.722;2023-09-18T07:17:14;20.00;99.90
4651;DHT22;2338;49.602;8.722;2023-09-18T07:19:59;20.00;99.90
4651;DHT22;2338;49.602;8.722;2023-09-18T07:22:51;20.10;99.90
4651;DHT22;2338;49.602;8.722;2023-09-18T07:25:37;20.10;99.90
4651;DHT22;2338;49.602;8.722;2023-09-18T07:28:24;20.10;99.90
4651;DHT22;2338;49.602;8.722;2023-09-18T07:31:12;20.10;99.90
4651;DHT22;2338;49.602;8.722;2023-09-18T07:33:58;20.20;99.90
4651;DHT22;2338;49.602;8.722;2023-09-18T07:36:44;20.20;99.90
4651;DHT22;2338;49.602;8.722;2023-09-18T07:39:30;20.30;99.90
4651;DHT22;2338;49.602;8.722;2023-09-18T07:42:17;20.30;99.90
4651;DHT22;2338;49.602;8.722;2023-09-18T07:45:04;20.40;99.90
4651;DHT22;2338;49.602;8.722;2023-09-18T07:47:51;20.40;99.90
4651;DHT22;2338;49.602;8.722;2023-09-18T07:50:37;20.40;99.90
4651;DHT22;2338;49.602;8.722;2023-09-18T07:53:23;20.50;99.90
4651;DHT22;2338;49.602;8.722;2023-09-18T07:56:08;20.50;99.90
4651;DHT22;2338;49.602;8.722;2023-09-18T07:58:54;20.50;99.90
4651;DHT22;2338;49.602;8.722;2023-09-18T08:01:41;20.50;99.90
4651;DHT22;2338;49.602;8.722;2023-09-18T08:04:29;20.40;99.90
4651;DHT22;2338;49.602;8.722;2023-09-18T08:07:16;20.40;99.90
4651;DHT22;2338;49.602;8.722;2023-09-18T08:10:02;20.30;99.90
4651;DHT22;2338;49.602;8.722;2023-09-18T08:12:50;20.30;99.90
4651;DHT22;2338;49.602;8.722;2023-09-18T08:15:36;20.40;99.90
4651;DHT22;2338;49.602;8.722;2023-09-18T08:18:22;20.40;99.90
4651;DHT22;2338;49.602;8.722;2023-09-18T08:21:12;20.50;99.90
4651;DHT22;2338;49.602;8.722;2023-09-18T08:23:57;20.50;99.90
4651;DHT22;2338;49.602;8.722;2023-09-18T08:26:43;20.50;99.90
4651;DHT22;2338;49.602;8.722;2023-09-18T08:29:29;20.50;99.90
4651;DHT22;2338;49.602;8.722;2023-09-18T08:32:15;20.50;99.90
4651;DHT22;2338;49.602;8.722;2023-09-18T08:35:01;20.50;99.90
4651;DHT22;2338;49.602;8.722;2023-09-18T08:37:48;20.50;99.90
4651;DHT22;2338;49.602;8.722;2023-09-18T08:40:34;20.50;99.90
4651;DHT22;2338;49.602;8.722;2023-09-18T08:43:21;20.40;99.90
4651;DHT22;2338;49.602;8.722;2023-09-18T08:46:08;20.50;99.90
4651;DHT22;2338;49.602;8.722;2023-09-18T08:48:54;20.60;99.90
4651;DHT22;2338;49.602;8.722;2023-09-18T08:51:42;20.50;99.90
4651;DHT22;2338;49.602;8.722;2023-09-18T08:54:30;20.50;99.90
4651;DHT22;2338;49.602;8.722;2023-09-18T08:57:18;20.50;99.90
4651;DHT22;2338;49.602;8.722;2023-09-18T09:00:05;20.40;99.90
4651;DHT22;2338;49.602;8.722;2023-09-18T09:02:52;20.40;99.90
4651;DHT22;2338;49.602;8.722;2023-09-18T09:05:38;20.30;99.90
4651;DHT22;2338;49.602;8.722;2023-09-18T09:08:24;20.20;99.90
4651;DHT22;2338;49.602;8.722;2023-09-18T09:11:11;20.30;99.90
4651;DHT22;2338;49.602;8.722;2023-09-18T09:14:10;20.30;99.90
4651;DHT22;2338;49.602;8.722;2023-09-18T09:17:00;20.40;99.90
4651;DHT22;2338;49.602;8.722;2023-09-18T09:19:47;20.40;99.90
4651;DHT22;2338;49.602;8.722;2023-09-18T09:22:32;20.40;99.90
4651;DHT22;2338;49.602;8.722;2023-09-18T09:25:23;20.50;99.90
4651;DHT22;2338;49.602;8.722;2023-09-18T09:28:11;20.50;99.90
4651;DHT22;2338;49.602;8.722;2023-09-18T09:31:00;20.60;99.90
4651;DHT22;2338;49.602;8.722;2023-09-18T09:33:51;20.60;99.90
4651;DHT22;2338;49.602;8.722;2023-09-18T09:36:51;20.70;99.90
4651;DHT22;2338;49.602;8.722;2023-09-18T09:39:49;20.80;99.90
4651;DHT22;2338;49.602;8.722;2023-09-18T09:42:43;20.90;99.90
4651;DHT22;2338;49.602;8.722;2023-09-18T09:45:32;20.80;99.90
4651;DHT22;2338;49.602;8.722;2023-09-18T09:48:20;20.90;99.90
4651;DHT22;2338;49.602;8.722;2023-09-18T09:51:05;20.90;99.90
4651;DHT22;2338;49.602;8.722;2023-09-18T09:53:51;21.00;99.90
4651;DHT22;2338;49.602;8.722;2023-09-18T09:56:41;21.00;99.90
4651;DHT22;2338;49.602;8.722;2023-09-18T09:59:27;21.00;99.90
4651;DHT22;2338;49.602;8.722;2023-09-18T10:02:15;21.00;99.90
4651;DHT22;2338;49.602;8.722;2023-09-18T10:05:04;20.90;99.90
4651;DHT22;2338;49.602;8.722;2023-09-18T10:07:50;20.90;99.90
4651;DHT22;2338;49.602;8.722;2023-09-18T10:10:38;20.80;99.90
4651;DHT22;2338;49.602;8.722;2023-09-18T10:13:31;20.70;99.90
4651;DHT22;2338;49.602;8.722;2023-09-18T10:16:18;20.70;99.90
4651;DHT22;2338;49.602;8.722;2023-09-18T10:19:14;20.80;99.90
4651;DHT22;2338;49.602;8.722;2023-09-18T10:22:06;20.80;99.90
4651;DHT22;2338;49.602;8.722;2023-09-18T10:25:02;20.80;99.90
4651;DHT22;2338;49.602;8.722;2023-09-18T10:27:51;20.90;99.90
4651;DHT22;2338;49.602;8.722;2023-09-18T10:30:38;20.90;99.90
4651;DHT22;2338;49.602;8.722;2023-09-18T10:33:24;20.90;99.90
4651;DHT22;2338;49.602;8.722;2023-09-18T10:36:12;20.90;99.90
4651;DHT22;2338;49.602;8.722;2023-09-18T10:38:59;20.80;99.90
4651;DHT22;2338;49.602;8.722;2023-09-18T10:41:47;20.80;99.90
4651;DHT22;2338;49.602;8.722;2023-09-18T10:44:33;20.90;99.90
4651;DHT22;2338;49.602;8.722;2023-09-18T10:47:19;21.00;99.90
4651;DHT22;2338;49.602;8.722;2023-09-18T10:50:06;21.10;99.90
4651;DHT22;2338;49.602;8.722;2023-09-18T10:52:55;21.10;99.90
4651;DHT22;2338;49.602;8.722;2023-09-18T10:55:44;21.10;99.90
4651;DHT22;2338;49.602;8.722;2023-09-18T10:58:30;21.10;99.90
4651;DHT22;2338;49.602;8.722;2023-09-18T11:01:20;21.10;99.90
4651;DHT22;2338;49.602;8.722;2023-09-18T11:04:09;21.10;99.90
4651;DHT22;2338;49.602;8.722;2023-09-18T11:07:02;21.20;99.90
4651;DHT22;2338;49.602;8.722;2023-09-18T11:09:50;21.20;99.90
4651;DHT22;2338;49.602;8.722;2023-09-18T11:12:43;21.40;99.90
4651;DHT22;2338;49.602;8.722;2023-09-18T11:15:32;21.40;99.90
4651;DHT22;2338;49.602;8.722;2023-09-18T11:18:19;21.50;99.90
4651;DHT22;2338;49.602;8.722;2023-09-18T11:21:10;21.70;99.90
4651;DHT22;2338;49.602;8.722;2023-09-18T11:23:59;21.60;99.90
4651;DHT22;2338;49.602;8.722;2023-09-18T11:26:50;21.70;99.90
4651;DHT22;2338;49.602;8.722;2023-09-18T11:29:37;21.80;99.90
4651;DHT22;2338;49.602;8.722;2023-09-18T11:32:37;21.90;99.90
4651;DHT22;2338;49.602;8.722;2023-09-18T11:35:25;21.90;99.90
4651;DHT22;2338;49.602;8.722;2023-09-18T11:38:11;21.80;99.90
4651;DHT22;2338;49.602;8.722;2023-09-18T11:40:57;21.90;99.90
4651;DHT22;2338;49.602;8.722;2023-09-18T11:43:44;21.80;99.90
4651;DHT22;2338;49.602;8.722;2023-09-18T11:46:30;21.80;99.90
4651;DHT22;2338;49.602;8.722;2023-09-18T11:49:19;21.80;99.90
4651;DHT22;2338;49.602;8.722;2023-09-18T11:52:06;21.60;99.90
4651;DHT22;2338;49.602;8.722;2023-09-18T11:54:53;21.60;99.90
4651;DHT22;2338;49.602;8.722;2023-09-18T11:57:40;21.70;99.90
4651;DHT22;2338;49.602;8.722;2023-09-18T12:00:28;21.90;99.90
4651;DHT22;2338;49.602;8.722;2023-09-18T12:03:15;22.10;99.90
4651;DHT22;2338;49.602;8.722;2023-09-18T12:06:09;22.20;99.90
4651;DHT22;2338;49.602;8.722;2023-09-18T12:08:57;22.20;99.90
4651;DHT22;2338;49.602;8.722;2023-09-18T12:11:43;22.20;99.90
4651;DHT22;2338;49.602;8.722;2023-09-18T12:14:30;22.20;99.90
4651;DHT22;2338;49.602;8.722;2023-09-18T12:17:17;22.40;99.90
4651;DHT22;2338;49.602;8.722;2023-09-18T12:20:04;22.60;99.90
4651;DHT22;2338;49.602;8.722;2023-09-18T12:22:50;22.70;99.90
4651;DHT22;2338;49.602;8.722;2023-09-18T12:25:38;22.80;99.90
4651;DHT22;2338;49.602;8.722;2023-09-18T12:28:25;22.90;99.90
4651;DHT22;2338;49.602;8.722;2023-09-18T12:31:13;22.80;99.90
4651;DHT22;2338;49.602;8.722;2023-09-18T12:34:00;22.80;99.90
4651;DHT22;2338;49.602;8.722;2023-09-18T12:36:46;22.80;99.90
4651;DHT22;2338;49.602;8.722;2023-09-18T12:39:32;22.70;99.90
4651;DHT22;2338;49.602;8.722;2023-09-18T12:42:19;22.70;99.90
4651;DHT22;2338;49.602;8.722;2023-09-18T12:45:06;22.60;99.90
4651;DHT22;2338;49.602;8.722;2023-09-18T12:47:54;22.60;99.90
4651;DHT22;2338;49.602;8.722;2023-09-18T12:50:41;22.70;99.90
4651;DHT22;2338;49.602;8.722;2023-09-18T12:53:27;22.70;99.90
4651;DHT22;2338;49.602;8.722;2023-09-18T12:56:14;22.60;99.90
4651;DHT22;2338;49.602;8.722;2023-09-18T12:59:00;22.60;99.90
4651;DHT22;2338;49.602;8.722;2023-09-18T13:01:48;22.40;99.90
4651;DHT22;2338;49.602;8.722;2023-09-18T13:04:35;22.40;99.90
4651;DHT22;2338;49.602;8.722;2023-09-18T13:07:23;22.40;99.90
4651;DHT22;2338;49.602;8.722;2023-09-18T13:10:11;22.40;99.90
4651;DHT22;2338;49.602;8.722;2023-09-18T13:12:59;22.40;99.90
4651;DHT22;2338;49.602;8.722;2023-09-18T13:15:45;22.60;99.90
4651;DHT22;2338;49.602;8.722;2023-09-18T13:18:31;22.80;99.90
4651;DHT22;2338;49.602;8.722;2023-09-18T13:21:17;23.00;99.90
4651;DHT22;2338;49.602;8.722;2023-09-18T13:24:06;23.00;99.90
4651;DHT22;2338;49.602;8.722;2023-09-18T13:26:53;23.20;99.90
4651;DHT22;2338;49.602;8.722;2023-09-18T13:29:39;23.40;99.90
4651;DHT22;2338;49.602;8.722;2023-09-18T13:32:24;23.40;99.90
4651;DHT22;2338;49.602;8.722;2023-09-18T13:35:11;23.40;99.90
4651;DHT22;2338;49.602;8.722;2023-09-18T13:37:58;23.40;99.90
4651;DHT22;2338;49.602;8.722;2023-09-18T13:40:47;23.20;99.90
4651;DHT22;2338;49.602;8.722;2023-09-18T13:43:32;23.00;99.90
4651;DHT22;2338;49.602;8.722;2023-09-18T13:46:19;23.00;99.90
4651;DHT22;2338;49.602;8.722;2023-09-18T13:49:05;23.00;99.90
4651;DHT22;2338;49.602;8.722;2023-09-18T13:51:51;23.10;99.90
4651;DHT22;2338;49.602;8.722;2023-09-18T13:54:36;23.20;99.90
4651;DHT22;2338;49.602;8.722;2023-09-18T13:57:27;23.20;99.90
4651;DHT22;2338;49.602;8.722;2023-09-18T14:00:13;23.30;99.90
4651;DHT22;2338;49.602;8.722;2023-09-18T14:02:58;23.30;99.90
4651;DHT22;2338;49.602;8.722;2023-09-18T14:05:45;23.20;99.90
4651;DHT22;2338;49.602;8.722;2023-09-18T14:08:30;23.10;99.90
4651;DHT22;2338;49.602;8.722;2023-09-18T14:11:16;23.20;99.90
4651;DHT22;2338;49.602;8.722;2023-09-18T14:14:03;23.40;99.90
4651;DHT22;2338;49.602;8.722;2023-09-18T14:16:49;23.50;99.90
4651;DHT22;2338;49.602;8.722;2023-09-18T14:19:35;23.60;99.90
4651;DHT22;2338;49.602;8.722;2023-09-18T14:22:22;23.70;99.90
4651;DHT22;2338;49.602;8.722;2023-09-18T14:25:08;23.90;99.90
4651;DHT22;2338;49.602;8.722;2023-09-18T14:27:55;24.20;99.90
4651;DHT22;2338;49.602;8.722;2023-09-18T14:30:42;24.50;99.00
4651;DHT22;2338;49.602;8.722;2023-09-18T14:33:28;24.90;97.50
4651;DHT22;2338;49.602;8.722;2023-09-18T14:36:13;25.10;90.90
4651;DHT22;2338;49.602;8.722;2023-09-18T14:38:59;25.10;84.40
4651;DHT22;2338;49.602;8.722;2023-09-18T14:41:45;25.10;85.60
4651;DHT22;2338;49.602;8.722;2023-09-18T14:44:31;25.30;86.80
4651;DHT22;2338;49.602;8.722;2023-09-18T14:47:18;25.50;81.10
4651;DHT22;2338;49.602;8.722;2023-09-18T14:50:05;25.70;75.10
4651;DHT22;2338;49.602;8.722;2023-09-18T14:52:50;25.70;72.80
4651;DHT22;2338;49.602;8.722;2023-09-18T14:55:36;26.00;71.40
4651;DHT22;2338;49.602;8.722;2023-09-18T14:58:22;26.20;69.80
4651;DHT22;2338;49.602;8.722;2023-09-18T15:01:08;26.30;68.50
4651;DHT22;2338;49.602;8.722;2023-09-18T15:03:55;26.30;67.80
4651;DHT22;2338;49.602;8.722;2023-09-18T15:06:41;26.30;60.70
4651;DHT22;2338;49.602;8.722;2023-09-18T15:09:27;26.00;57.80
4651;DHT22;2338;49.602;8.722;2023-09-18T15:12:13;25.80;58.70
4651;DHT22;2338;49.602;8.722;2023-09-18T15:14:58;25.70;64.40
4651;DHT22;2338;49.602;8.722;2023-09-18T15:17:44;25.70;62.50
4651;DHT22;2338;49.602;8.722;2023-09-18T15:20:31;25.90;65.00
4651;DHT22;2338;49.602;8.722;2023-09-18T15:23:17;25.90;58.30
4651;DHT22;2338;49.602;8.722;2023-09-18T15:26:02;25.90;56.60
4651;DHT22;2338;49.602;8.722;2023-09-18T15:28:48;26.00;57.40
4651;DHT22;2338;49.602;8.722;2023-09-18T15:31:34;26.00;52.20
4651;DHT22;2338;49.602;8.722;2023-09-18T15:34:19;25.90;53.60
4651;DHT22;2338;49.602;8.722;2023-09-18T15:37:06;25.80;54.10
4651;DHT22;2338;49.602;8.722;2023-09-18T15:39:51;25.90;56.10
4651;DHT22;2338;49.602;8.722;2023-09-18T15:42:37;25.90;56.40
4651;DHT22;2338;49.602;8.722;2023-09-18T15:45:23;25.70;56.70
4651;DHT22;2338;49.602;8.722;2023-09-18T15:48:09;25.50;58.90
4651;DHT22;2338;49.602;8.722;2023-09-18T15:50:54;25.20;62.20
4651;DHT22;2338;49.602;8.722;2023-09-18T15:53:41;25.10;66.20
4651;DHT22;2338;49.602;8.722;2023-09-18T15:56:27;24.90;65.70
4651;DHT22;2338;49.602;8.722;2023-09-18T15:59:13;24.90;66.70
4651;DHT22;2338;49.602;8.722;2023-09-18T16:01:59;24.60;68.70
4651;DHT22;2338;49.602;8.722;2023-09-18T16:04:45;24.50;73.80
4651;DHT22;2338;49.602;8.722;2023-09-18T16:07:31;24.30;82.80
4651;DHT22;2338;49.602;8.722;2023-09-18T16:10:19;24.10;85.50
4651;DHT22;2338;49.602;8.722;2023-09-18T16:13:05;24.00;87.10
4651;DHT22;2338;49.602;8.722;2023-09-18T16:15:50;23.90;94.60
4651;DHT22;2338;49.602;8.722;2023-09-18T16:18:35;23.80;94.80
4651;DHT22;2338;49.602;8.722;2023-09-18T16:21:21;23.60;94.40
4651;DHT22;2338;49.602;8.722;2023-09-18T16:24:07;23.40;95.00
4651;DHT22;2338;49.602;8.722;2023-09-18T16:26:55;23.30;95.60
4651;DHT22;2338;49.602;8.722;2023-09-18T16:29:41;23.20;99.90
4651;DHT22;2338;49.602;8.722;2023-09-18T16:32:28;22.90;99.90
4651;DHT22;2338;49.602;8.722;2023-09-18T16:35:14;22.90;99.90
4651;DHT22;2338;49.602;8.722;2023-09-18T16:38:00;22.80;99.90
4651;DHT22;2338;49.602;8.722;2023-09-18T16:40:47;22.90;99.90
4651;DHT22;2338;49.602;8.722;2023-09-18T16:43:34;22.80;99.90
4651;DHT22;2338;49.602;8.722;2023-09-18T16:46:20;22.70;99.90
4651;DHT22;2338;49.602;8.722;2023-09-18T16:49:07;22.70;99.90
4651;DHT22;2338;49.602;8.722;2023-09-18T16:51:54;22.50;99.90
4651;DHT22;2338;49.602;8.722;2023-09-18T16:54:39;22.40;99.90
4651;DHT22;2338;49.602;8.722;2023-09-18T16:57:25;22.40;99.90
4651;DHT22;2338;49.602;8.722;2023-09-18T17:00:13;22.30;99.90
4651;DHT22;2338;49.602;8.722;2023-09-18T17:03:00;22.20;99.90
4651;DHT22;2338;49.602;8.722;2023-09-18T17:05:48;22.10;99.90
4651;DHT22;2338;49.602;8.722;2023-09-18T17:08:33;22.10;99.90
4651;DHT22;2338;49.602;8.722;2023-09-18T17:11:19;22.00;99.90
4651;DHT22;2338;49.602;8.722;2023-09-18T17:14:06;21.90;99.90
4651;DHT22;2338;49.602;8.722;2023-09-18T17:16:53;21.70;99.90
4651;DHT22;2338;49.602;8.722;2023-09-18T17:19:39;21.70;99.90
4651;DHT22;2338;49.602;8.722;2023-09-18T17:22:25;21.60;99.90
4651;DHT22;2338;49.602;8.722;2023-09-18T17:25:11;21.50;99.90
4651;DHT22;2338;49.602;8.722;2023-09-18T17:27:59;21.50;99.90
4651;DHT22;2338;49.602;8.722;2023-09-18T17:30:47;21.40;99.90
4651;DHT22;2338;49.602;8.722;2023-09-18T17:33:35;21.30;99.90
4651;DHT22;2338;49.602;8.722;2023-09-18T17:36:22;21.30;99.90
4651;DHT22;2338;49.602;8.722;2023-09-18T17:39:07;21.30;99.90
4651;DHT22;2338;49.602;8.722;2023-09-18T17:41:54;21.20;99.90
4651;DHT22;2338;49.602;8.722;2023-09-18T17:44:40;21.20;99.90
4651;DHT22;2338;49.602;8.722;2023-09-18T17:47:26;21.10;99.90
4651;DHT22;2338;49.602;8.722;2023-09-18T17:50:14;21.10;99.90
4651;DHT22;2338;49.602;8.722;2023-09-18T17:52:59;21.10;99.90
4651;DHT22;2338;49.602;8.722;2023-09-18T17:55:45;21.00;99.90
4651;DHT22;2338;49.602;8.722;2023-09-18T17:58:32;21.00;99.90
4651;DHT22;2338;49.602;8.722;2023-09-18T18:01:18;20.90;99.90
4651;DHT22;2338;49.602;8.722;2023-09-18T18:04:04;21.00;99.90
4651;DHT22;2338;49.602;8.722;2023-09-18T18:06:52;21.00;99.90
4651;DHT22;2338;49.602;8.722;2023-09-18T18:09:37;20.90;99.90